Time;durP1;ratioP1;P1;durP2;ratioP2;P2;SDS_P1;SDS_P2;PMS_P1;PMS_P2;Temp;Humidity;BMP_temperature;BMP_pressure;BME280_temperature;BME280_humidity;BME280_pressure;Samples;Min_cycle;Max_cycle;Signal;HPM_P1;HPM_P2
2024/01/27 00:02:03;;;;;;;24.33;4.70;;;;;;;;;;5096189;28;20416;-80
2024/01/27 00:04:29;;;;;;;19.57;3.67;;;;;;;;;;5095902;28;20450;-82
2024/01/27 00:06:55;;;;;;;12.87;3.03;;;;;;;;;;5096034;28;20927;-82
2024/01/27 00:09:21;;;;;;;14.13;2.97;;;;;;;;;;5095680;28;20486;-81
2024/01/27 00:11:47;;;;;;;14.80;3.20;;;;;;;;;;5096097;28;20767;-80
2024/01/27 00:14:13;;;;;;;16.30;3.60;;;;;;;;;;5096015;28;20896;-82
2024/01/27 00:16:39;;;;;;;20.83;4.00;;;;;;;;;;5095794;28;20422;-82
2024/01/27 00:19:04;;;;;;;20.30;2.70;;;;;;;;;;5095790;28;20402;-81
2024/01/27 00:21:30;;;;;;;13.13;2.07;;;;;;;;;;5095808;28;20482;-82
2024/01/27 00:24:00;;;;;;;11.93;2.80;;;;;;;;;;5106445;28;20913;-82
2024/01/27 00:26:26;;;;;;;16.67;2.20;;;;;;;;;;5099410;28;20507;-81
2024/01/27 00:28:52;;;;;;;18.53;4.70;;;;;;;;;;5096576;28;20975;-81
2024/01/27 00:31:18;;;;;;;18.27;4.67;;;;;;;;;;5094271;28;20491;-82
2024/01/27 00:33:44;;;;;;;15.97;3.10;;;;;;;;;;5095494;28;20409;-82
2024/01/27 00:36:10;;;;;;;40.80;5.40;;;;;;;;;;5095540;28;20424;-81
2024/01/27 00:38:36;;;;;;;21.37;4.77;;;;;;;;;;5094954;28;20861;-81
2024/01/27 00:41:02;;;;;;;22.73;5.83;;;;;;;;;;5095251;28;20476;-82
2024/01/27 00:43:27;;;;;;;19.13;3.30;;;;;;;;;;5094095;28;20409;-81
2024/01/27 00:45:53;;;;;;;12.43;2.40;;;;;;;;;;5095485;28;20462;-82
2024/01/27 00:48:20;;;;;;;12.23;2.53;;;;;;;;;;5112930;28;20500;-82
2024/01/27 00:50:46;;;;;;;18.37;2.70;;;;;;;;;;5113564;28;21005;-84
2024/01/27 00:53:12;;;;;;;18.17;2.93;;;;;;;;;;5114868;28;20518;-81
2024/01/27 00:55:38;;;;;;;16.37;3.60;;;;;;;;;;5114014;28;20423;-83
2024/01/27 00:58:04;;;;;;;16.80;3.47;;;;;;;;;;5113914;28;20408;-82
2024/01/27 01:00:30;;;;;;;12.40;4.60;;;;;;;;;;5114891;28;20838;-82
2024/01/27 01:02:56;;;;;;;20.83;3.73;;;;;;;;;;5115046;28;20419;-82
2024/01/27 01:05:22;;;;;;;17.53;2.73;;;;;;;;;;5114645;28;20423;-83
2024/01/27 01:07:48;;;;;;;16.13;3.20;;;;;;;;;;5114480;27;20405;-81
2024/01/27 01:10:13;;;;;;;19.00;3.17;;;;;;;;;;5114870;28;20415;-80
2024/01/27 01:12:39;;;;;;;26.07;4.07;;;;;;;;;;5113693;28;20442;-82
2024/01/27 01:15:06;;;;;;;14.03;3.50;;;;;;;;;;5114909;28;20419;-80
2024/01/27 01:17:31;;;;;;;14.43;3.00;;;;;;;;;;5114832;27;20426;-82
2024/01/27 01:19:57;;;;;;;26.03;4.57;;;;;;;;;;5114583;28;20454;-82
2024/01/27 01:22:23;;;;;;;13.53;4.30;;;;;;;;;;5114792;28;20416;-80
2024/01/27 01:24:49;;;;;;;18.80;3.37;;;;;;;;;;5114374;28;20416;-81
2024/01/27 01:27:18;;;;;;;18.20;3.03;;;;;;;;;;5114699;28;20422;-80
2024/01/27 01:29:47;;;;;;;18.17;3.30;;;;;;;;;;5114395;28;20510;-81
2024/01/27 01:32:13;;;;;;;18.90;3.47;;;;;;;;;;5114588;28;20441;-80
2024/01/27 01:34:39;;;;;;;15.00;3.17;;;;;;;;;;5114516;28;20905;-81
2024/01/27 01:37:05;;;;;;;18.50;2.63;;;;;;;;;;5114226;28;20442;-81
2024/01/27 01:39:31;;;;;;;20.50;3.80;;;;;;;;;;5114064;28;20415;-81
2024/01/27 01:41:57;;;;;;;21.27;3.67;;;;;;;;;;5114288;28;20490;-81
2024/01/27 01:44:25;;;;;;;14.33;3.43;;;;;;;;;;5114236;28;20907;-81
2024/01/27 01:46:51;;;;;;;15.93;3.73;;;;;;;;;;5114155;28;20424;-80
2024/01/27 01:49:17;;;;;;;13.93;2.40;;;;;;;;;;5114233;28;20995;-82
2024/01/27 01:51:43;;;;;;;19.50;3.57;;;;;;;;;;5114109;28;20423;-82
2024/01/27 01:54:09;;;;;;;14.63;3.97;;;;;;;;;;5113832;28;20447;-79
2024/01/27 01:56:35;;;;;;;17.10;2.83;;;;;;;;;;5099406;28;20410;-84
2024/01/27 01:59:01;;;;;;;13.77;3.07;;;;;;;;;;5093491;28;20408;-84
2024/01/27 02:01:27;;;;;;;16.10;2.27;;;;;;;;;;5100367;28;21001;-85
2024/01/27 02:03:54;;;;;;;12.90;2.90;;;;;;;;;;5113795;27;20975;-84
2024/01/27 02:06:20;;;;;;;15.30;3.13;;;;;;;;;;5113813;28;20430;-80
2024/01/27 02:08:46;;;;;;;21.87;4.47;;;;;;;;;;5106942;28;20503;-86
2024/01/27 02:11:12;;;;;;;16.93;2.70;;;;;;;;;;5092958;28;20442;-84
2024/01/27 02:13:38;;;;;;;20.70;3.47;;;;;;;;;;5091944;28;20889;-82
2024/01/27 02:16:04;;;;;;;14.80;3.23;;;;;;;;;;5090779;28;20425;-79
2024/01/27 02:18:29;;;;;;;10.20;2.40;;;;;;;;;;5091912;28;20414;-84
2024/01/27 02:20:56;;;;;;;15.90;2.40;;;;;;;;;;5105782;28;20483;-80
2024/01/27 02:23:21;;;;;;;13.53;2.93;;;;;;;;;;5113203;28;20407;-80
2024/01/27 02:25:47;;;;;;;20.33;2.93;;;;;;;;;;5113378;28;20411;-81
2024/01/27 02:28:13;;;;;;;22.73;3.40;;;;;;;;;;5113332;28;20901;-79
2024/01/27 02:30:39;;;;;;;19.67;3.60;;;;;;;;;;5113440;28;20433;-82
2024/01/27 02:33:05;;;;;;;21.53;4.57;;;;;;;;;;5113152;28;20408;-81
2024/01/27 02:35:31;;;;;;;16.27;2.70;;;;;;;;;;5111939;28;20415;-82
2024/01/27 02:37:57;;;;;;;28.20;3.47;;;;;;;;;;5112932;28;20418;-79
2024/01/27 02:40:23;;;;;;;16.03;1.57;;;;;;;;;;5113289;28;20467;-83
2024/01/27 02:42:49;;;;;;;19.47;3.30;;;;;;;;;;5113372;28;20414;-83
2024/01/27 02:45:15;;;;;;;11.00;2.30;;;;;;;;;;5112074;28;20488;-78
2024/01/27 02:47:41;;;;;;;17.20;3.60;;;;;;;;;;5113189;28;20418;-81
2024/01/27 02:50:07;;;;;;;17.10;3.07;;;;;;;;;;5113212;28;20415;-82
2024/01/27 02:52:33;;;;;;;18.37;2.60;;;;;;;;;;5112907;28;20498;-82
2024/01/27 02:54:59;;;;;;;12.77;2.10;;;;;;;;;;5111902;28;20789;-80
2024/01/27 02:57:25;;;;;;;23.47;3.50;;;;;;;;;;5112538;28;20416;-83
2024/01/27 02:59:51;;;;;;;16.43;3.47;;;;;;;;;;5099304;28;20485;-80
2024/01/27 03:02:17;;;;;;;21.77;3.10;;;;;;;;;;5112997;28;20781;-80
2024/01/27 03:04:43;;;;;;;18.17;3.43;;;;;;;;;;5095427;28;20460;-83
2024/01/27 03:07:08;;;;;;;13.63;3.17;;;;;;;;;;5079450;28;20427;-80
2024/01/27 03:09:34;;;;;;;19.73;2.67;;;;;;;;;;5072183;28;20421;-80
2024/01/27 03:12:00;;;;;;;15.43;2.37;;;;;;;;;;5072378;28;20404;-80
2024/01/27 03:14:26;;;;;;;11.97;2.30;;;;;;;;;;5083478;28;20416;-84
2024/01/27 03:16:52;;;;;;;23.00;3.13;;;;;;;;;;5090924;28;20409;-84
2024/01/27 03:19:18;;;;;;;14.20;2.37;;;;;;;;;;5092320;28;20500;-82
2024/01/27 03:21:47;;;;;;;14.60;3.43;;;;;;;;;;5093603;28;20688;-79
2024/01/27 03:24:13;;;;;;;21.40;3.30;;;;;;;;;;5094978;28;20424;-84
2024/01/27 03:26:39;;;;;;;14.93;3.10;;;;;;;;;;5096647;28;20416;-84
2024/01/27 03:29:05;;;;;;;24.50;3.77;;;;;;;;;;5096398;28;20767;-83
2024/01/27 03:31:31;;;;;;;19.33;3.17;;;;;;;;;;5096418;28;20476;-83
2024/01/27 03:33:58;;;;;;;23.07;4.03;;;;;;;;;;5096377;28;20896;-85
2024/01/27 03:36:24;;;;;;;22.97;3.30;;;;;;;;;;5094943;28;20507;-83
2024/01/27 03:38:50;;;;;;;20.40;3.27;;;;;;;;;;5095896;28;20498;-83
2024/01/27 03:41:20;;;;;;;18.50;2.80;;;;;;;;;;5094838;28;20464;-80
2024/01/27 03:43:45;;;;;;;12.33;2.07;;;;;;;;;;5096144;28;20414;-79
2024/01/27 03:46:11;;;;;;;22.97;3.70;;;;;;;;;;5096110;28;20412;-81
2024/01/27 03:48:37;;;;;;;21.70;4.40;;;;;;;;;;5096094;28;20427;-84
2024/01/27 03:51:03;;;;;;;15.87;3.00;;;;;;;;;;5096001;28;20174;-80
2024/01/27 03:53:29;;;;;;;20.00;3.70;;;;;;;;;;5095748;28;20414;-80
2024/01/27 03:55:58;;;;;;;19.10;3.87;;;;;;;;;;5095980;28;20397;-83
2024/01/27 03:58:24;;;;;;;19.33;3.50;;;;;;;;;;5095914;28;20414;-80
2024/01/27 04:00:50;;;;;;;19.00;3.90;;;;;;;;;;5095499;28;20827;-79
2024/01/27 04:03:16;;;;;;;21.63;5.57;;;;;;;;;;5095832;28;20399;-79
2024/01/27 04:05:42;;;;;;;20.77;2.43;;;;;;;;;;5095831;28;20434;-84
2024/01/27 04:08:08;;;;;;;18.43;2.70;;;;;;;;;;5095318;28;20407;-79
2024/01/27 04:10:34;;;;;;;11.07;2.27;;;;;;;;;;5094446;28;20179;-79
2024/01/27 04:13:00;;;;;;;25.27;3.83;;;;;;;;;;5095606;28;20411;-79
2024/01/27 04:15:26;;;;;;;15.07;2.13;;;;;;;;;;5095537;28;20926;-79
2024/01/27 04:17:52;;;;;;;19.03;2.63;;;;;;;;;;5095535;28;20419;-80
2024/01/27 04:20:17;;;;;;;14.03;1.93;;;;;;;;;;5095443;28;20455;-80
2024/01/27 04:22:43;;;;;;;16.97;3.27;;;;;;;;;;5093919;28;21805;-80
2024/01/27 04:25:09;;;;;;;17.57;2.73;;;;;;;;;;5092743;28;20411;-80
2024/01/27 04:27:45;;;;;;;13.97;2.80;;;;;;;;;;5095377;28;20941;-80
2024/01/27 04:30:12;;;;;;;24.13;2.87;;;;;;;;;;5092796;28;20429;-80
2024/01/27 04:32:38;;;;;;;20.10;2.73;;;;;;;;;;5094821;28;20394;-80
2024/01/27 04:35:05;;;;;;;20.70;2.00;;;;;;;;;;5095109;28;20423;-79
2024/01/27 04:37:30;;;;;;;12.50;2.50;;;;;;;;;;5094827;28;20494;-81
2024/01/27 04:39:59;;;;;;;17.23;2.40;;;;;;;;;;5095066;28;20496;-80
2024/01/27 04:42:25;;;;;;;14.40;1.87;;;;;;;;;;5093798;28;20423;-79
2024/01/27 04:44:51;;;;;;;23.53;3.93;;;;;;;;;;5095016;28;20419;-80
2024/01/27 04:47:17;;;;;;;17.83;3.50;;;;;;;;;;5095005;28;20407;-79
2024/01/27 04:49:43;;;;;;;12.93;3.00;;;;;;;;;;5094867;28;20411;-80
2024/01/27 04:52:09;;;;;;;16.33;2.87;;;;;;;;;;5094826;28;20427;-81
2024/01/27 04:54:34;;;;;;;20.40;5.20;;;;;;;;;;5094648;28;20168;-79
2024/01/27 04:57:00;;;;;;;15.43;2.97;;;;;;;;;;5094832;28;20763;-79
2024/01/27 04:59:26;;;;;;;14.00;3.50;;;;;;;;;;5094464;28;20464;-83
2024/01/27 05:01:52;;;;;;;19.80;3.33;;;;;;;;;;5094723;28;20415;-79
2024/01/27 05:04:18;;;;;;;24.00;4.67;;;;;;;;;;5094656;28;20422;-84
2024/01/27 05:06:45;;;;;;;15.30;2.77;;;;;;;;;;5094526;28;20414;-84
2024/01/27 05:09:12;;;;;;;22.23;2.70;;;;;;;;;;5094234;28;20931;-79
2024/01/27 05:11:38;;;;;;;19.10;3.53;;;;;;;;;;5094495;28;20812;-83
2024/01/27 05:14:04;;;;;;;22.63;3.43;;;;;;;;;;5094523;28;20503;-79
2024/01/27 05:16:30;;;;;;;14.70;2.23;;;;;;;;;;5094393;28;20553;-79
2024/01/27 05:18:56;;;;;;;19.93;3.77;;;;;;;;;;5094355;28;20463;-79
2024/01/27 05:21:25;;;;;;;17.23;4.43;;;;;;;;;;5094253;28;20580;-79
2024/01/27 05:23:51;;;;;;;19.53;3.27;;;;;;;;;;5091364;28;20397;-84
2024/01/27 05:26:16;;;;;;;16.47;3.10;;;;;;;;;;5094208;28;20419;-80
2024/01/27 05:28:42;;;;;;;19.10;3.20;;;;;;;;;;5094183;28;20408;-83
2024/01/27 05:31:08;;;;;;;19.77;3.63;;;;;;;;;;5094006;28;20459;-82
2024/01/27 05:33:34;;;;;;;17.03;3.90;;;;;;;;;;5093978;28;20773;-82
2024/01/27 05:36:00;;;;;;;18.17;4.13;;;;;;;;;;5094083;28;20465;-81
2024/01/27 05:38:28;;;;;;;17.23;2.70;;;;;;;;;;5093577;28;20904;-79
2024/01/27 05:40:54;;;;;;;24.10;3.33;;;;;;;;;;5093778;28;20467;-79
2024/01/27 05:43:20;;;;;;;20.63;3.07;;;;;;;;;;5092537;28;20407;-83
2024/01/27 05:45:46;;;;;;;15.63;3.33;;;;;;;;;;5093006;28;20414;-78
2024/01/27 05:48:12;;;;;;;17.90;4.07;;;;;;;;;;5092520;28;20417;-79
2024/01/27 05:50:38;;;;;;;20.73;4.20;;;;;;;;;;5092541;28;20416;-82
2024/01/27 05:53:04;;;;;;;29.90;4.60;;;;;;;;;;5093338;28;20410;-79
2024/01/27 05:55:30;;;;;;;18.13;2.80;;;;;;;;;;5090887;28;20411;-82
2024/01/27 05:57:57;;;;;;;20.13;3.93;;;;;;;;;;5093663;28;20442;-83
2024/01/27 06:00:23;;;;;;;16.90;3.20;;;;;;;;;;5093178;28;20467;-79
2024/01/27 06:02:49;;;;;;;23.33;3.70;;;;;;;;;;5093518;28;20415;-82
2024/01/27 06:05:15;;;;;;;18.80;2.57;;;;;;;;;;5092209;28;20431;-81
2024/01/27 06:07:41;;;;;;;23.63;3.40;;;;;;;;;;5093118;28;20883;-80
2024/01/27 06:10:10;;;;;;;15.03;3.40;;;;;;;;;;5093330;28;20887;-83
2024/01/27 06:12:36;;;;;;;12.50;2.67;;;;;;;;;;5093387;28;20418;-78
2024/01/27 06:15:02;;;;;;;19.57;3.10;;;;;;;;;;5093344;28;20403;-79
2024/01/27 06:17:31;;;;;;;19.53;3.03;;;;;;;;;;5093455;28;20406;-82
2024/01/27 06:19:57;;;;;;;22.40;3.63;;;;;;;;;;5093467;28;20459;-83
2024/01/27 06:22:23;;;;;;;15.00;2.33;;;;;;;;;;5093301;28;20418;-83
2024/01/27 06:24:49;;;;;;;28.53;3.77;;;;;;;;;;5093575;28;20875;-82
2024/01/27 06:27:15;;;;;;;16.63;2.83;;;;;;;;;;5093522;28;20407;-83
2024/01/27 06:29:42;;;;;;;22.00;3.33;;;;;;;;;;5093538;28;20406;-84
2024/01/27 06:32:07;;;;;;;22.40;4.03;;;;;;;;;;5093451;28;20399;-83
2024/01/27 06:34:33;;;;;;;15.90;2.27;;;;;;;;;;5091108;28;20441;-81
2024/01/27 06:36:59;;;;;;;11.13;2.30;;;;;;;;;;5088149;28;20416;-82
2024/01/27 06:39:25;;;;;;;18.30;3.67;;;;;;;;;;5073316;28;20464;-80
2024/01/27 06:41:51;;;;;;;19.60;3.37;;;;;;;;;;5085405;28;20480;-80
2024/01/27 06:44:17;;;;;;;17.27;3.00;;;;;;;;;;5093405;28;20765;-80
2024/01/27 06:46:45;;;;;;;18.70;2.87;;;;;;;;;;5093405;28;20402;-83
2024/01/27 06:49:11;;;;;;;12.53;3.70;;;;;;;;;;5075411;28;20442;-79
2024/01/27 06:51:37;;;;;;;27.40;4.90;;;;;;;;;;5072999;28;20412;-81
2024/01/27 06:54:03;;;;;;;14.77;3.37;;;;;;;;;;5071529;28;20422;-80
2024/01/27 06:56:29;;;;;;;19.07;2.97;;;;;;;;;;5072802;28;20841;-81
2024/01/27 06:58:55;;;;;;;15.57;3.60;;;;;;;;;;5072944;28;20422;-82
2024/01/27 07:01:21;;;;;;;22.23;3.30;;;;;;;;;;5072681;28;20496;-82
2024/01/27 07:03:47;;;;;;;11.83;2.63;;;;;;;;;;5072909;28;20881;-80
2024/01/27 07:06:12;;;;;;;12.10;2.97;;;;;;;;;;5072943;28;20416;-82
2024/01/27 07:08:38;;;;;;;19.07;3.13;;;;;;;;;;5071136;28;20481;-81
2024/01/27 07:11:04;;;;;;;12.40;3.40;;;;;;;;;;5072746;28;20423;-81
2024/01/27 07:13:30;;;;;;;16.27;3.63;;;;;;;;;;5072827;28;20407;-81
2024/01/27 07:15:57;;;;;;;25.50;4.50;;;;;;;;;;5072772;28;20729;-81
2024/01/27 07:18:23;;;;;;;21.23;3.20;;;;;;;;;;5072804;28;20767;-83
2024/01/27 07:20:49;;;;;;;21.00;4.70;;;;;;;;;;5072677;28;20500;-83
2024/01/27 07:23:15;;;;;;;24.97;3.43;;;;;;;;;;5072415;28;20914;-83
2024/01/27 07:25:41;;;;;;;13.03;3.03;;;;;;;;;;5073806;28;20415;-83
2024/01/27 07:28:07;;;;;;;16.00;3.00;;;;;;;;;;5074382;28;20464;-83
2024/01/27 07:30:33;;;;;;;12.90;2.47;;;;;;;;;;5074017;28;20409;-83
2024/01/27 07:32:59;;;;;;;18.47;6.47;;;;;;;;;;5090192;28;20854;-83
2024/01/27 07:35:25;;;;;;;15.27;3.10;;;;;;;;;;5093688;28;20452;-82
2024/01/27 07:37:51;;;;;;;15.10;4.73;;;;;;;;;;5093138;28;20765;-82
2024/01/27 07:40:17;;;;;;;20.40;3.33;;;;;;;;;;5092136;28;20827;-82
2024/01/27 07:42:43;;;;;;;12.63;2.70;;;;;;;;;;5092931;28;20428;-82
2024/01/27 07:45:09;;;;;;;13.37;2.93;;;;;;;;;;5093289;28;20409;-82
2024/01/27 07:47:35;;;;;;;21.02;3.90;;;;;;;;;;5092968;28;20447;-81
2024/01/27 07:50:01;;;;;;;19.50;3.63;;;;;;;;;;5093601;28;20166;-82
2024/01/27 07:52:27;;;;;;;12.73;3.33;;;;;;;;;;5090583;28;20428;-83
2024/01/27 07:54:54;;;;;;;14.60;3.50;;;;;;;;;;5092166;28;20501;-82
2024/01/27 07:57:20;;;;;;;15.60;2.90;;;;;;;;;;5092034;28;20509;-84
2024/01/27 07:59:46;;;;;;;11.23;1.77;;;;;;;;;;5091700;28;20446;-84
2024/01/27 08:02:12;;;;;;;17.77;3.03;;;;;;;;;;5091959;28;20446;-83
2024/01/27 08:04:38;;;;;;;22.93;3.37;;;;;;;;;;5092044;28;20412;-84
2024/01/27 08:07:09;;;;;;;16.53;3.20;;;;;;;;;;5089054;28;20487;-82
2024/01/27 08:09:35;;;;;;;18.83;4.10;;;;;;;;;;5095762;28;20462;-82
2024/01/27 08:12:01;;;;;;;26.83;3.90;;;;;;;;;;5095630;28;20429;-80
2024/01/27 08:14:29;;;;;;;10.63;2.37;;;;;;;;;;5095480;28;20903;-81
2024/01/27 08:16:56;;;;;;;14.10;2.77;;;;;;;;;;5094376;28;20451;-80
2024/01/27 08:19:21;;;;;;;15.03;2.30;;;;;;;;;;5095494;28;20409;-79
2024/01/27 08:21:48;;;;;;;17.30;2.67;;;;;;;;;;5095037;28;20461;-85
2024/01/27 08:24:14;;;;;;;16.83;3.43;;;;;;;;;;5095475;28;20766;-80
2024/01/27 08:26:42;;;;;;;13.40;3.50;;;;;;;;;;5095401;28;20483;-82
2024/01/27 08:29:08;;;;;;;16.67;2.87;;;;;;;;;;5095300;28;20402;-81
2024/01/27 08:31:34;;;;;;;9.87;2.20;;;;;;;;;;5095290;28;20767;-79
2024/01/27 08:34:03;;;;;;;9.23;1.70;;;;;;;;;;5095202;28;20415;-79
2024/01/27 08:36:28;;;;;;;13.07;1.73;;;;;;;;;;5095208;28;20430;-85
2024/01/27 08:38:54;;;;;;;11.90;4.10;;;;;;;;;;5095341;28;20769;-84
2024/01/27 08:41:20;;;;;;;12.80;2.80;;;;;;;;;;5094919;28;20556;-84
2024/01/27 08:43:46;;;;;;;8.27;1.13;;;;;;;;;;5095171;28;20546;-82
2024/01/27 08:46:15;;;;;;;15.70;3.27;;;;;;;;;;5095083;28;20413;-84
2024/01/27 08:48:41;;;;;;;16.47;2.10;;;;;;;;;;5094951;28;20409;-83
2024/01/27 08:51:09;;;;;;;10.53;1.80;;;;;;;;;;5094902;28;20411;-84
2024/01/27 08:53:35;;;;;;;13.13;2.20;;;;;;;;;;5094572;28;20422;-85
2024/01/27 08:56:01;;;;;;;7.07;1.77;;;;;;;;;;5094806;28;20918;-85
2024/01/27 08:58:27;;;;;;;10.67;2.53;;;;;;;;;;5093587;28;20964;-84
2024/01/27 09:00:53;;;;;;;17.20;2.77;;;;;;;;;;5094565;28;20485;-84
2024/01/27 09:03:22;;;;;;;12.47;2.27;;;;;;;;;;5094717;28;20493;-85
2024/01/27 09:05:48;;;;;;;12.97;2.03;;;;;;;;;;5094749;28;20412;-86
2024/01/27 09:08:15;;;;;;;14.60;2.20;;;;;;;;;;5093125;28;20504;-83
2024/01/27 09:10:41;;;;;;;9.40;2.00;;;;;;;;;;5094535;28;20489;-83
2024/01/27 09:13:07;;;;;;;14.37;3.03;;;;;;;;;;5094509;28;20779;-83
2024/01/27 09:15:33;;;;;;;11.00;1.23;;;;;;;;;;5094460;28;20427;-85
2024/01/27 09:17:59;;;;;;;12.30;2.00;;;;;;;;;;5094403;28;20482;-84
2024/01/27 09:20:25;;;;;;;14.07;2.30;;;;;;;;;;5094252;28;20451;-85
2024/01/27 09:22:51;;;;;;;12.57;1.70;;;;;;;;;;5093957;28;20972;-85
2024/01/27 09:25:17;;;;;;;16.53;2.40;;;;;;;;;;5094340;28;20412;-85
2024/01/27 09:27:43;;;;;;;11.77;2.10;;;;;;;;;;5094222;28;20463;-84
2024/01/27 09:30:09;;;;;;;11.03;1.90;;;;;;;;;;5094541;28;20774;-84
2024/01/27 09:32:35;;;;;;;11.03;2.03;;;;;;;;;;5094221;28;20900;-84
2024/01/27 09:35:01;;;;;;;7.20;1.73;;;;;;;;;;5094026;28;20496;-84
2024/01/27 09:37:27;;;;;;;10.00;1.97;;;;;;;;;;5093939;28;20414;-84
2024/01/27 09:39:53;;;;;;;10.63;2.37;;;;;;;;;;5094173;28;20411;-84
2024/01/27 09:42:21;;;;;;;7.33;1.60;;;;;;;;;;5093821;28;20940;-85
2024/01/27 09:44:49;;;;;;;9.53;1.83;;;;;;;;;;5092529;28;20404;-84
2024/01/27 09:47:25;;;;;;;12.40;3.10;;;;;;;;;;5093940;28;20949;-90
2024/01/27 09:49:51;;;;;;;8.00;1.63;;;;;;;;;;5095324;28;20871;-90
2024/01/27 09:52:17;;;;;;;9.13;2.40;;;;;;;;;;5095017;28;20454;-89
2024/01/27 09:54:43;;;;;;;10.07;2.40;;;;;;;;;;5095053;28;20413;-93
2024/01/27 09:57:09;;;;;;;7.77;2.10;;;;;;;;;;5095419;28;20410;-94
2024/01/27 09:59:36;;;;;;;8.83;1.93;;;;;;;;;;5094894;28;20422;-92
2024/01/27 10:02:04;;;;;;;9.53;2.27;;;;;;;;;;5092757;28;20442;-87
2024/01/27 10:04:31;;;;;;;8.87;2.53;;;;;;;;;;5087250;28;20452;-91
2024/01/27 10:06:58;;;;;;;8.17;1.57;;;;;;;;;;5075957;28;20415;-90
2024/01/27 10:09:24;;;;;;;8.30;1.70;;;;;;;;;;5109181;28;20413;-90
2024/01/27 10:11:50;;;;;;;11.97;2.50;;;;;;;;;;5115398;28;20752;-94
2024/01/27 10:14:16;;;;;;;13.90;2.40;;;;;;;;;;5115867;28;20406;-93
2024/01/27 10:16:43;;;;;;;9.23;1.90;;;;;;;;;;5117668;28;20176;-92
2024/01/27 10:19:13;;;;;;;8.67;1.60;;;;;;;;;;5116075;28;20757;-91
2024/01/27 10:21:39;;;;;;;8.80;1.37;;;;;;;;;;5114411;28;20472;-90
2024/01/27 10:24:06;;;;;;;14.43;2.03;;;;;;;;;;5113796;28;20397;-89
2024/01/27 10:26:33;;;;;;;12.53;2.10;;;;;;;;;;5112367;28;20177;-87
2024/01/27 10:28:59;;;;;;;7.33;2.00;;;;;;;;;;5112363;28;20434;-86
2024/01/27 10:31:28;;;;;;;11.83;1.80;;;;;;;;;;5112083;28;20510;-86
2024/01/27 10:33:56;;;;;;;14.30;2.40;;;;;;;;;;5105514;27;20418;-87
2024/01/27 10:36:22;;;;;;;8.13;2.57;;;;;;;;;;5112790;28;20421;-85
2024/01/27 10:38:48;;;;;;;13.40;2.10;;;;;;;;;;5095119;28;20907;-87
2024/01/27 10:41:17;;;;;;;7.23;2.40;;;;;;;;;;5092239;28;21018;-83
2024/01/27 10:43:44;;;;;;;7.33;1.50;;;;;;;;;;5089187;28;20656;-85
2024/01/27 10:46:10;;;;;;;12.30;2.30;;;;;;;;;;5092048;28;20416;-87
2024/01/27 10:48:37;;;;;;;7.20;1.90;;;;;;;;;;5092839;28;20497;-85
2024/01/27 10:51:10;;;;;;;17.50;3.07;;;;;;;;;;5093016;28;20414;-86
2024/01/27 10:53:37;;;;;;;9.77;2.40;;;;;;;;;;5093179;28;20407;-88
2024/01/27 10:56:07;;;;;;;8.77;1.50;;;;;;;;;;5093125;28;20406;-87
2024/01/27 10:58:40;;;;;;;8.43;1.43;;;;;;;;;;5092952;28;20409;-86
2024/01/27 11:01:08;;;;;;;12.40;2.63;;;;;;;;;;5092824;28;20883;-86
2024/01/27 11:03:35;;;;;;;9.40;2.10;;;;;;;;;;5105081;28;20500;-87
2024/01/27 11:06:01;;;;;;;10.13;1.20;;;;;;;;;;5113040;28;20829;-88
2024/01/27 11:08:30;;;;;;;8.60;2.40;;;;;;;;;;5107764;28;20420;-88
2024/01/27 11:10:56;;;;;;;11.60;2.23;;;;;;;;;;5111783;28;20433;-86
2024/01/27 11:13:24;;;;;;;10.70;3.13;;;;;;;;;;5113141;28;20555;-86
2024/01/27 11:15:53;;;;;;;10.90;2.10;;;;;;;;;;5112913;28;20418;-82
2024/01/27 11:18:19;;;;;;;9.57;2.27;;;;;;;;;;5111633;28;20398;-83
2024/01/27 11:20:45;;;;;;;11.40;2.87;;;;;;;;;;5112963;28;20560;-86
2024/01/27 11:23:16;;;;;;;7.70;1.87;;;;;;;;;;5112482;28;20880;-87
2024/01/27 11:25:42;;;;;;;12.03;2.20;;;;;;;;;;5113147;28;20496;-86
2024/01/27 11:28:16;;;;;;;9.60;2.03;;;;;;;;;;5113272;28;20478;-84
2024/01/27 11:30:49;;;;;;;9.73;2.30;;;;;;;;;;5106560;28;20459;-86
2024/01/27 11:33:15;;;;;;;9.93;1.40;;;;;;;;;;5092843;28;20931;-85
2024/01/27 11:35:41;;;;;;;8.27;1.40;;;;;;;;;;5091345;28;20432;-86
2024/01/27 11:38:07;;;;;;;10.33;1.77;;;;;;;;;;5098481;28;20422;-83
2024/01/27 11:40:33;;;;;;;12.13;1.83;;;;;;;;;;5112774;28;20460;-85
2024/01/27 11:43:02;;;;;;;6.17;1.50;;;;;;;;;;5114299;28;20934;-81
2024/01/27 11:45:29;;;;;;;8.70;1.97;;;;;;;;;;5116672;28;20412;-83
2024/01/27 11:47:55;;;;;;;16.43;2.30;;;;;;;;;;5115201;28;20946;-82
2024/01/27 11:50:22;;;;;;;8.97;1.60;;;;;;;;;;5116761;27;20414;-81
2024/01/27 11:52:48;;;;;;;9.20;1.73;;;;;;;;;;5116274;28;20513;-83
2024/01/27 11:55:15;;;;;;;8.67;2.00;;;;;;;;;;5116409;28;20454;-80
2024/01/27 11:57:41;;;;;;;5.70;1.03;;;;;;;;;;5116374;27;20416;-82
2024/01/27 12:00:09;;;;;;;10.43;2.60;;;;;;;;;;5116068;28;20504;-81
2024/01/27 12:02:35;;;;;;;11.23;1.70;;;;;;;;;;5111328;28;20422;-80
2024/01/27 12:05:05;;;;;;;6.80;1.63;;;;;;;;;;5116404;28;21366;-84
2024/01/27 12:07:31;;;;;;;14.10;2.77;;;;;;;;;;5112177;28;20943;-82
2024/01/27 12:09:57;;;;;;;11.07;2.20;;;;;;;;;;5116274;28;20412;-82
2024/01/27 12:12:23;;;;;;;10.10;2.20;;;;;;;;;;5116291;28;20410;-83
2024/01/27 12:14:49;;;;;;;11.40;2.30;;;;;;;;;;5116300;27;20413;-83
2024/01/27 12:17:16;;;;;;;10.63;2.00;;;;;;;;;;5116141;28;20913;-84
2024/01/27 12:19:55;;;;;;;10.07;1.60;;;;;;;;;;5116251;28;20436;-82
2024/01/27 12:22:28;;;;;;;10.10;1.70;;;;;;;;;;5114562;28;20440;-81
2024/01/27 12:25:08;;;;;;;8.57;1.43;;;;;;;;;;5100939;28;20475;-85
2024/01/27 12:27:34;;;;;;;7.60;2.03;;;;;;;;;;5095333;28;20436;-81
2024/01/27 12:30:01;;;;;;;8.53;2.00;;;;;;;;;;5094419;28;20409;-84
2024/01/27 12:32:27;;;;;;;4.87;1.80;;;;;;;;;;5094558;28;20468;-83
2024/01/27 12:34:53;;;;;;;15.37;1.83;;;;;;;;;;5095744;28;20761;-81
2024/01/27 12:37:22;;;;;;;8.80;1.70;;;;;;;;;;5094043;28;20402;-82
2024/01/27 12:39:50;;;;;;;5.33;1.70;;;;;;;;;;5094284;28;20409;-84
2024/01/27 12:42:16;;;;;;;6.17;1.37;;;;;;;;;;5089977;28;20445;-81
2024/01/27 12:44:43;;;;;;;7.77;1.23;;;;;;;;;;5074760;28;20466;-83
2024/01/27 12:47:10;;;;;;;7.90;1.47;;;;;;;;;;5072567;28;20418;-85
2024/01/27 12:49:36;;;;;;;9.30;1.67;;;;;;;;;;5083377;28;20417;-84
2024/01/27 12:52:02;;;;;;;4.33;1.37;;;;;;;;;;5094541;28;20436;-82
2024/01/27 12:54:28;;;;;;;5.40;1.37;;;;;;;;;;5094747;28;20406;-82
2024/01/27 12:56:54;;;;;;;11.20;2.47;;;;;;;;;;5094861;28;20547;-82
2024/01/27 12:59:20;;;;;;;12.23;1.97;;;;;;;;;;5107771;28;20420;-82
2024/01/27 13:01:46;;;;;;;10.57;2.10;;;;;;;;;;5113786;28;20484;-85
2024/01/27 13:04:12;;;;;;;8.00;2.37;;;;;;;;;;5113838;28;20410;-81
2024/01/27 13:06:38;;;;;;;8.40;1.87;;;;;;;;;;5114775;28;20448;-83
2024/01/27 13:09:04;;;;;;;7.97;2.20;;;;;;;;;;5115160;28;20436;-82
2024/01/27 13:11:30;;;;;;;7.83;2.90;;;;;;;;;;5115017;28;20417;-82
2024/01/27 13:13:56;;;;;;;7.23;1.47;;;;;;;;;;5114768;27;20507;-82
2024/01/27 13:16:22;;;;;;;9.10;1.50;;;;;;;;;;5113687;28;20410;-84
2024/01/27 13:18:48;;;;;;;6.60;1.20;;;;;;;;;;5102636;28;20186;-81
2024/01/27 13:21:14;;;;;;;8.23;1.33;;;;;;;;;;5094077;28;20472;-84
2024/01/27 13:23:40;;;;;;;9.13;2.10;;;;;;;;;;5100217;28;20411;-84
2024/01/27 13:26:06;;;;;;;8.20;1.40;;;;;;;;;;5092841;28;20924;-84
2024/01/27 13:28:32;;;;;;;10.57;2.80;;;;;;;;;;5102732;28;20414;-79
2024/01/27 13:30:58;;;;;;;8.67;1.47;;;;;;;;;;5114708;28;20718;-82
2024/01/27 13:33:24;;;;;;;10.27;2.50;;;;;;;;;;5114362;28;21064;-89
2024/01/27 13:35:50;;;;;;;5.77;1.80;;;;;;;;;;5095264;28;20898;-79
2024/01/27 13:38:23;;;;;;;8.03;1.27;;;;;;;;;;5093548;28;20883;-84
2024/01/27 13:40:49;;;;;;;6.37;1.40;;;;;;;;;;5090703;28;21211;-80
2024/01/27 13:43:15;;;;;;;14.63;2.80;;;;;;;;;;5093959;28;20402;-86
2024/01/27 13:45:41;;;;;;;7.77;1.60;;;;;;;;;;5093938;28;20414;-85
2024/01/27 13:48:07;;;;;;;9.00;1.23;;;;;;;;;;5093505;28;20430;-86
2024/01/27 13:50:33;;;;;;;6.93;1.90;;;;;;;;;;5093235;28;20824;-81
2024/01/27 13:52:59;;;;;;;5.33;1.37;;;;;;;;;;5093330;28;20430;-81
2024/01/27 13:55:25;;;;;;;9.47;1.87;;;;;;;;;;5093746;28;20766;-79
2024/01/27 13:57:51;;;;;;;9.40;2.07;;;;;;;;;;5092196;28;20423;-79
2024/01/27 14:00:18;;;;;;;13.20;2.27;;;;;;;;;;5093315;28;20866;-80
2024/01/27 14:02:43;;;;;;;13.47;2.30;;;;;;;;;;5093688;28;20402;-80
2024/01/27 14:05:10;;;;;;;8.47;2.60;;;;;;;;;;5092773;28;21296;-79
2024/01/27 14:07:36;;;;;;;13.07;3.10;;;;;;;;;;5092550;28;20437;-80
2024/01/27 14:10:02;;;;;;;6.37;1.80;;;;;;;;;;5094499;28;20424;-84
2024/01/27 14:12:28;;;;;;;7.40;2.17;;;;;;;;;;5094165;28;20405;-79
2024/01/27 14:15:02;;;;;;;9.03;1.80;;;;;;;;;;5094395;28;20443;-81
2024/01/27 14:17:28;;;;;;;9.60;2.03;;;;;;;;;;5094163;28;20487;-79
2024/01/27 14:19:53;;;;;;;10.93;2.90;;;;;;;;;;5094256;28;20469;-79
2024/01/27 14:22:20;;;;;;;15.83;2.43;;;;;;;;;;5095075;28;21853;-81
2024/01/27 14:24:45;;;;;;;9.83;2.10;;;;;;;;;;5114433;28;20497;-79
2024/01/27 14:27:13;;;;;;;7.63;1.27;;;;;;;;;;5114786;28;20447;-81
2024/01/27 14:29:39;;;;;;;12.07;1.80;;;;;;;;;;5113376;28;20402;-79